Impacts METAR Board INFO
IDs:

KCLT - Charlotte/Douglas In, NC, US

Updated at: 1750 UTC 25 Feb 2018
Potential Impact None Slight Moderate High
Time25/05Z 25/06Z 25/07Z 25/08Z 25/09Z 25/10Z 25/11Z 25/12Z 25/13Z 25/14Z 25/15Z 25/16Z 25/17Z
VIS10 10 10 10 10 10 10 10 10 10 10 2.5 7
CIG-- -- -- -- -- -- 90 -- -- -- 50 14 65
CoverFEWFEWSCTSCTSCTFEWBKNFEWFEWSCTBKNOVCOVC
FltCatVFRVFRVFRVFRVFRVFRVFRVFRVFRVFRVFRIFRVFR
WX----------------------RA BR-RA
WDir180180180190190180180200200220240310250
WSpd14 12 11 15 11 9 11 11 10 11 8 3 7
WGst22 -- -- -- -- -- -- -- -- -- -- -- --
Raw hourly METARs
KCLT 250452Z 18014G22KT 10SM FEW250 21/15 A3006 RMK AO2 SLP173 T02060150 402670133
KCLT 250552Z 18012KT 10SM FEW250 19/16 A3007 RMK AO2 SLP174 T01940156 10228 20194 52002
KCLT 250652Z 18011KT 10SM FEW015 SCT250 19/16 A3005 RMK AO2 SLP168 T01890156
KCLT 250752Z 19015KT 10SM SCT250 18/16 A3003 RMK AO2 SLP163 T01830156
KCLT 250852Z 19011KT 10SM FEW080 SCT250 18/15 A3003 RMK AO2 SLP160 T01780150 56013
KCLT 250952Z 18009KT 10SM FEW250 17/15 A3003 RMK AO2 SLP161 T01720150
KCLT 251052Z 18011KT 10SM FEW075 BKN090 17/15 A3003 RMK AO2 SLP162 T01720150
KCLT 251152Z 20011KT 10SM FEW090 17/15 A3004 RMK AO2 SLP166 T01720150 10194 20167 53004
KCLT 251252Z 20010KT 10SM FEW100 18/16 A3004 RMK AO2 SLP167 T01780156
KCLT 251352Z 22011KT 10SM FEW018 SCT090 SCT110 19/16 A3007 RMK AO2 SLP176 T01940156
KCLT 251452Z 24008KT 10SM FEW021 SCT039 BKN050 BKN130 21/16 A3008 RMK AO2 SLP181 VCSH W AND NW-N T02060156 53015
KCLT 251552Z COR 31003KT 2 1/2SM R18C/5000VP6000FT RA BR BKN014 BKN022 OVC046 17/17 A3011 RMK AO2 VIS 3/4V4 RAB02 SLP189 P0012 T01720172
KCLT 251652Z 25007KT 7SM -RA FEW028 SCT050 OVC065 18/18 A3011 RMK AO2 SLP190 P0002 T01830178